createdAt,value
2023-02-01T00:00:04.928Z,48.34
2023-02-01T00:01:05.768Z,52.21
2023-02-01T00:02:05.688Z,48.34
2023-02-01T00:03:04.911Z,48.66
2023-02-01T00:04:05.791Z,48.34
2023-02-01T00:05:05.307Z,49.47
2023-02-01T00:06:05.822Z,49.15
2023-02-01T00:07:04.911Z,48.66
2023-02-01T00:08:04.865Z,48.82
2023-02-01T00:09:04.867Z,50.60
2023-02-01T00:10:05.704Z,48.50
2023-02-01T00:11:04.855Z,53.82
2023-02-01T00:12:04.835Z,48.02
2023-02-01T00:13:04.819Z,47.05
2023-02-01T00:14:05.694Z,48.18
2023-02-01T00:15:05.776Z,48.02
2023-02-01T00:16:04.870Z,48.34
2023-02-01T00:17:04.799Z,51.72
2023-02-01T00:18:04.781Z,50.27
2023-02-01T00:19:04.778Z,47.86
2023-02-01T00:20:05.283Z,47.86
2023-02-01T00:21:04.761Z,48.98
2023-02-01T00:22:04.760Z,50.27
2023-02-01T00:23:04.749Z,49.47
2023-02-01T00:24:04.726Z,57.20
2023-02-01T00:26:55.679Z,48.02
2023-02-01T00:27:55.606Z,46.89
2023-02-01T00:28:55.586Z,47.53
2023-02-01T00:29:55.580Z,47.70
2023-02-01T00:30:55.629Z,47.37
2023-02-01T00:31:55.578Z,47.53
2023-02-01T00:32:55.568Z,48.50
2023-02-01T00:33:55.546Z,49.31
2023-02-01T00:34:55.545Z,48.02
2023-02-01T00:35:55.543Z,53.33
2023-02-01T00:36:55.519Z,52.69
2023-02-01T00:37:55.523Z,48.50
2023-02-01T00:38:55.505Z,47.21
2023-02-01T00:39:55.505Z,51.08
2023-02-01T00:40:55.499Z,49.79
2023-02-01T00:41:55.479Z,47.05
2023-02-01T00:42:55.487Z,57.85
2023-02-01T00:43:55.476Z,49.63
2023-02-01T00:44:55.463Z,47.53
2023-02-01T00:45:55.450Z,47.86
2023-02-01T00:46:55.536Z,46.89
2023-02-01T00:47:55.438Z,47.70
2023-02-01T00:48:55.426Z,47.70
2023-02-01T00:49:55.425Z,53.66
2023-02-01T00:50:55.412Z,53.33
2023-02-01T00:51:55.413Z,49.15
2023-02-01T00:52:55.392Z,48.02
2023-02-01T00:53:55.384Z,47.21
2023-02-01T00:54:55.378Z,48.50
2023-02-01T00:55:55.365Z,48.82
2023-02-01T00:56:55.355Z,48.50
2023-02-01T00:57:55.352Z,47.21
2023-02-01T00:58:55.348Z,47.21
2023-02-01T00:59:55.340Z,46.08
2023-02-01T01:00:55.428Z,47.70
2023-02-01T01:01:55.402Z,47.37
2023-02-01T01:02:55.311Z,51.56
2023-02-01T01:03:55.305Z,47.53
2023-02-01T01:04:55.308Z,47.05
2023-02-01T01:05:55.291Z,47.05
2023-02-01T01:06:55.288Z,48.66
2023-02-01T01:07:55.296Z,47.70
2023-02-01T01:08:55.267Z,52.69
2023-02-01T01:09:55.257Z,47.21
2023-02-01T01:10:55.251Z,48.98
2023-02-01T01:11:55.243Z,51.88
2023-02-01T01:12:55.230Z,52.05
2023-02-01T01:13:55.232Z,48.82
2023-02-01T01:14:56.319Z,47.86
2023-02-01T01:15:56.327Z,47.05
2023-02-01T01:16:56.296Z,47.05
2023-02-01T01:17:56.303Z,47.21
2023-02-01T01:18:56.304Z,46.25
2023-02-01T01:19:58.914Z,48.34
2023-02-01T01:20:56.267Z,47.37
2023-02-01T01:21:56.274Z,47.86
2023-02-01T01:22:56.254Z,49.79
2023-02-01T01:23:56.273Z,47.21
2023-02-01T01:24:56.249Z,49.79
2023-02-01T01:25:56.228Z,46.41
2023-02-01T01:26:56.226Z,46.89
2023-02-01T01:27:56.225Z,46.89
2023-02-01T01:28:57.064Z,46.73
2023-02-01T01:29:56.193Z,47.05
2023-02-01T01:30:56.987Z,46.57
2023-02-01T01:31:56.227Z,46.89
2023-02-01T01:32:56.172Z,48.02
2023-02-01T01:33:57.058Z,46.89
2023-02-01T01:34:56.153Z,47.86
2023-02-01T01:35:56.149Z,47.53
2023-02-01T01:36:56.144Z,50.60
2023-02-01T01:37:56.122Z,46.73
2023-02-01T01:38:56.133Z,47.21
2023-02-01T01:39:56.117Z,47.21
2023-02-01T01:40:56.103Z,47.21
2023-02-01T01:41:56.088Z,47.37
2023-02-01T01:42:56.087Z,47.53
2023-02-01T01:43:56.092Z,47.53
2023-02-01T01:44:56.078Z,47.05
2023-02-01T01:45:56.063Z,47.53
2023-02-01T01:46:56.090Z,47.70
2023-02-01T01:47:56.041Z,48.82
2023-02-01T01:48:56.037Z,46.89
2023-02-01T01:49:56.021Z,48.66
2023-02-01T01:50:56.029Z,47.05
2023-02-01T01:51:56.036Z,48.18
2023-02-01T01:52:56.000Z,54.62
2023-02-01T01:53:56.029Z,48.66
2023-02-01T01:54:57.000Z,47.86
2023-02-01T01:55:56.000Z,47.05
2023-02-01T01:56:55.978Z,48.18
2023-02-01T01:57:55.964Z,46.89
2023-02-01T01:58:55.956Z,48.18
2023-02-01T01:59:55.963Z,47.70
2023-02-01T02:00:56.021Z,45.44
2023-02-01T02:01:56.954Z,49.47
2023-02-01T02:02:55.943Z,50.27
2023-02-01T02:03:55.939Z,46.57
2023-02-01T02:04:55.926Z,55.27
2023-02-01T02:05:55.906Z,49.15
2023-02-01T02:06:55.897Z,46.89
2023-02-01T02:07:55.881Z,46.25
2023-02-01T02:08:56.564Z,48.50
2023-02-01T02:10:00.839Z,46.08
2023-02-01T02:10:57.888Z,46.73
2023-02-01T02:11:55.873Z,47.53
2023-02-01T02:12:55.853Z,49.47
2023-02-01T02:13:55.832Z,50.76
2023-02-01T02:14:55.828Z,46.89
2023-02-01T02:15:56.561Z,46.57
2023-02-01T02:16:55.809Z,47.21
2023-02-01T02:17:55.807Z,46.57
2023-02-01T02:18:55.793Z,46.89
2023-02-01T02:19:55.811Z,47.86
2023-02-01T02:20:56.562Z,47.05
2023-02-01T02:21:55.780Z,50.76
2023-02-01T02:22:55.776Z,48.34
2023-02-01T02:23:55.756Z,46.41
2023-02-01T02:24:55.756Z,46.89
2023-02-01T02:25:55.748Z,47.86
2023-02-01T02:26:55.745Z,48.02
2023-02-01T02:27:55.732Z,46.73
2023-02-01T02:28:55.722Z,47.70
2023-02-01T02:29:55.707Z,52.53
2023-02-01T02:30:55.715Z,47.21
2023-02-01T02:31:55.770Z,46.73
2023-02-01T02:32:56.496Z,46.41
2023-02-01T02:33:55.675Z,47.37
2023-02-01T02:34:55.670Z,45.76
2023-02-01T02:35:55.699Z,46.08
2023-02-01T02:36:55.652Z,46.25
2023-02-01T02:37:55.648Z,50.43
2023-02-01T02:38:55.652Z,46.89
2023-02-01T02:39:55.630Z,46.25
2023-02-01T02:40:55.641Z,47.86
2023-02-01T02:41:56.615Z,46.57
2023-02-01T02:42:58.222Z,47.05
2023-02-01T02:43:56.612Z,48.50
2023-02-01T02:44:55.593Z,59.14
2023-02-01T02:45:55.623Z,47.53
2023-02-01T02:46:55.578Z,46.41
2023-02-01T02:47:55.581Z,47.86
2023-02-01T02:48:55.563Z,46.57
2023-02-01T02:49:56.496Z,45.92
2023-02-01T02:50:55.548Z,47.05
2023-02-01T02:51:55.541Z,47.53
2023-02-01T02:52:55.578Z,50.11
2023-02-01T02:53:57.068Z,46.25
2023-02-01T02:54:55.509Z,45.92
2023-02-01T02:55:56.513Z,46.41
2023-02-01T02:56:55.519Z,49.31
2023-02-01T02:57:55.497Z,51.88
2023-02-01T02:58:55.479Z,53.82
2023-02-01T02:59:55.486Z,46.41
2023-02-01T03:00:55.515Z,52.05
2023-02-01T03:01:55.460Z,47.05
2023-02-01T03:02:55.527Z,46.73
2023-02-01T03:03:55.452Z,47.53
2023-02-01T03:04:55.462Z,48.66
2023-02-01T03:05:55.431Z,49.15
2023-02-01T03:06:55.429Z,49.15
2023-02-01T03:07:55.427Z,47.37
2023-02-01T03:08:55.403Z,47.21
2023-02-01T03:09:55.398Z,47.05
2023-02-01T03:10:55.393Z,46.73
2023-02-01T03:11:55.398Z,48.66
2023-02-01T03:12:55.378Z,49.47
2023-02-01T03:13:55.371Z,48.98
2023-02-01T03:14:55.358Z,48.02
2023-02-01T03:15:55.384Z,46.08
2023-02-01T03:16:55.349Z,47.86
2023-02-01T03:17:55.328Z,48.66
2023-02-01T03:18:55.343Z,51.24
2023-02-01T03:19:55.319Z,48.50
2023-02-01T03:20:55.316Z,46.57
2023-02-01T03:21:55.026Z,46.57
2023-02-01T03:22:55.290Z,40.61
2023-02-01T03:23:55.294Z,43.51
2023-02-01T03:24:55.292Z,39.48
2023-02-01T03:25:55.267Z,39.96
2023-02-01T03:26:55.263Z,41.09
2023-02-01T03:27:55.275Z,48.34
2023-02-01T03:28:55.245Z,51.72
2023-02-01T03:29:56.223Z,44.31
2023-02-01T03:30:55.227Z,45.60
2023-02-01T03:31:55.272Z,40.61
2023-02-01T03:32:55.215Z,44.63
2023-02-01T03:33:55.996Z,56.56
2023-02-01T03:34:55.196Z,48.02
2023-02-01T03:35:55.178Z,43.02
2023-02-01T03:36:56.179Z,50.60
2023-02-01T03:37:55.177Z,44.63
2023-02-01T03:38:55.171Z,45.60
2023-02-01T03:39:55.157Z,51.24
2023-02-01T03:40:55.152Z,49.79
2023-02-01T03:41:55.145Z,44.31
2023-02-01T03:42:55.135Z,48.02
2023-02-01T03:43:55.128Z,49.63
2023-02-01T03:44:55.121Z,43.83
2023-02-01T03:45:55.158Z,45.12
2023-02-01T03:46:55.103Z,44.47
2023-02-01T03:47:55.106Z,45.12
2023-02-01T03:48:55.090Z,43.02
2023-02-01T03:49:55.084Z,54.30
2023-02-01T03:50:55.998Z,55.27
2023-02-01T03:51:55.124Z,53.17
2023-02-01T03:52:55.055Z,47.37
2023-02-01T03:53:56.001Z,50.92
2023-02-01T03:54:55.059Z,55.91
2023-02-01T03:55:55.035Z,58.97
2023-02-01T03:56:55.028Z,46.73
2023-02-01T03:57:55.007Z,41.73
2023-02-01T03:58:55.022Z,51.40
2023-02-01T03:59:55.009Z,52.69
2023-02-01T04:00:55.043Z,44.79
2023-02-01T04:04:01.830Z,49.31
2023-02-01T04:05:02.906Z,43.51
2023-02-01T04:06:02.902Z,45.60
2023-02-01T04:07:02.896Z,45.60
2023-02-01T04:08:02.883Z,52.53
2023-02-01T04:09:02.870Z,44.63
2023-02-01T04:10:02.874Z,52.69
2023-02-01T04:11:02.856Z,55.27
2023-02-01T04:12:03.759Z,53.01
2023-02-01T04:13:02.842Z,47.70
2023-02-01T04:14:02.839Z,52.53
2023-02-01T04:15:03.684Z,54.30
2023-02-01T04:16:02.835Z,56.88
2023-02-01T04:17:02.814Z,64.45
2023-02-01T04:18:02.808Z,58.01
2023-02-01T04:19:02.804Z,57.85
2023-02-01T04:20:02.811Z,58.81
2023-02-01T04:21:02.775Z,62.04
2023-02-01T04:22:02.784Z,58.33
2023-02-01T04:23:02.761Z,54.95
2023-02-01T04:24:02.754Z,53.17
2023-02-01T04:25:02.748Z,55.27
2023-02-01T04:26:03.741Z,50.92
2023-02-01T04:27:02.728Z,47.21
2023-02-01T04:28:02.714Z,45.44
2023-02-01T04:29:02.729Z,53.50
2023-02-01T04:30:02.707Z,53.82
2023-02-01T04:31:02.780Z,56.72
2023-02-01T04:32:02.690Z,56.72
2023-02-01T04:33:02.677Z,65.58
2023-02-01T04:34:02.677Z,61.07
2023-02-01T04:35:02.712Z,60.91
2023-02-01T04:36:02.654Z,59.78
2023-02-01T04:37:02.650Z,57.69
2023-02-01T04:38:02.642Z,55.43
2023-02-01T04:39:02.641Z,61.23
2023-02-01T04:40:03.271Z,54.46
2023-02-01T04:41:02.618Z,56.40
2023-02-01T04:42:02.613Z,52.85
2023-02-01T04:43:02.606Z,59.46
2023-02-01T04:44:02.601Z,60.42
2023-02-01T04:45:02.582Z,59.78
2023-02-01T04:46:02.619Z,59.14
2023-02-01T04:47:02.561Z,63.33
2023-02-01T04:48:02.556Z,58.01
2023-02-01T04:49:02.556Z,58.65
2023-02-01T04:50:02.558Z,60.26
2023-02-01T04:51:02.548Z,61.55
2023-02-01T04:52:02.542Z,52.85
2023-02-01T04:53:02.528Z,50.76
2023-02-01T04:54:02.516Z,52.85
2023-02-01T04:55:02.520Z,57.69
2023-02-01T04:56:02.513Z,60.10
2023-02-01T04:57:02.496Z,53.98
2023-02-01T04:58:02.493Z,53.98
2023-02-01T04:59:02.533Z,59.46
2023-02-01T05:00:02.478Z,59.78
2023-02-01T05:01:02.493Z,56.07
2023-02-01T05:02:02.459Z,60.42
2023-02-01T05:03:02.453Z,63.97
2023-02-01T05:04:03.151Z,49.95
2023-02-01T05:05:02.516Z,56.88
2023-02-01T05:06:02.439Z,57.85
2023-02-01T05:07:02.439Z,58.81
2023-02-01T05:08:02.414Z,56.72
2023-02-01T05:09:02.413Z,56.88
2023-02-01T05:10:02.412Z,54.62
2023-02-01T05:11:02.385Z,59.30
2023-02-01T05:12:03.398Z,58.33
2023-02-01T05:13:02.385Z,59.62
2023-02-01T05:14:02.748Z,62.52
2023-02-01T05:15:03.375Z,64.45
2023-02-01T05:16:02.425Z,65.74
2023-02-01T05:17:03.298Z,61.23
2023-02-01T05:18:02.344Z,60.10
2023-02-01T05:19:02.332Z,62.52
2023-02-01T05:20:02.336Z,62.04
2023-02-01T05:21:02.315Z,63.00
2023-02-01T05:22:02.323Z,58.49
2023-02-01T05:23:02.335Z,58.81
2023-02-01T05:24:02.298Z,59.62
2023-02-01T05:25:03.281Z,58.65
2023-02-01T05:26:02.286Z,56.72
2023-02-01T05:27:02.803Z,59.62
2023-02-01T05:28:02.457Z,63.00
2023-02-01T05:29:02.256Z,58.17
2023-02-01T05:30:02.269Z,61.39
2023-02-01T05:31:02.832Z,62.04
2023-02-01T05:32:19.374Z,63.65
2023-02-01T05:33:06.205Z,60.42
2023-02-01T05:34:03.209Z,59.14
2023-02-01T05:35:02.211Z,61.07
2023-02-01T05:36:02.206Z,55.59
2023-02-01T05:37:02.212Z,63.00
2023-02-01T05:38:02.188Z,62.04
2023-02-01T05:39:02.261Z,58.17
2023-02-01T05:40:02.172Z,55.91
2023-02-01T05:41:02.165Z,62.20
2023-02-01T05:42:02.154Z,61.39
2023-02-01T05:43:02.141Z,59.30
2023-02-01T05:44:02.137Z,57.85
2023-02-01T05:45:02.136Z,60.26
2023-02-01T05:46:02.151Z,58.49
2023-02-01T05:47:02.115Z,58.17
2023-02-01T05:48:02.108Z,60.75
2023-02-01T05:49:02.107Z,60.42
2023-02-01T05:50:02.090Z,63.65
2023-02-01T05:51:02.088Z,59.94
2023-02-01T05:52:02.087Z,60.75
2023-02-01T05:53:02.068Z,58.65
2023-02-01T05:54:02.069Z,56.88
2023-02-01T05:55:02.056Z,60.10
2023-02-01T05:56:02.052Z,61.55
2023-02-01T05:57:02.039Z,63.49
2023-02-01T05:58:02.032Z,57.52
2023-02-01T05:59:02.767Z,60.91
2023-02-01T06:00:02.024Z,60.91
2023-02-01T06:01:02.015Z,63.33
2023-02-01T06:02:02.010Z,61.87
2023-02-01T06:03:02.056Z,63.33
2023-02-01T06:04:02.020Z,58.17
2023-02-01T06:05:01.975Z,60.91
2023-02-01T06:06:02.010Z,61.71
2023-02-01T06:07:01.961Z,64.13
2023-02-01T06:08:01.947Z,60.91
2023-02-01T06:09:01.949Z,59.46
2023-02-01T06:10:01.962Z,60.59
2023-02-01T06:11:01.937Z,56.24
2023-02-01T06:12:01.924Z,59.94
2023-02-01T06:13:01.923Z,63.16
2023-02-01T06:14:01.943Z,61.71
2023-02-01T06:15:02.722Z,61.55
2023-02-01T06:16:04.714Z,60.75
2023-02-01T06:17:01.881Z,64.61
2023-02-01T06:18:01.871Z,61.39
2023-02-01T06:19:01.886Z,60.91
2023-02-01T06:20:01.857Z,61.87
2023-02-01T06:21:01.866Z,65.74
2023-02-01T06:22:01.841Z,64.61
2023-02-01T06:23:01.853Z,61.55
2023-02-01T06:24:01.839Z,61.87
2023-02-01T06:25:01.820Z,64.94
2023-02-01T06:26:01.847Z,63.65
2023-02-01T06:27:01.813Z,60.91
2023-02-01T06:28:01.800Z,64.13
2023-02-01T06:29:01.794Z,62.52
2023-02-01T06:30:01.787Z,59.78
2023-02-01T06:31:01.978Z,62.68
2023-02-01T06:32:03.378Z,64.45
2023-02-01T06:33:02.289Z,65.10
2023-02-01T06:34:01.759Z,63.16
2023-02-01T06:35:01.740Z,64.78
2023-02-01T06:36:01.757Z,65.10
2023-02-01T06:37:01.727Z,64.78
2023-02-01T06:38:01.751Z,65.90
2023-02-01T06:39:01.726Z,63.81
2023-02-01T06:40:01.754Z,64.29
2023-02-01T06:41:01.699Z,65.26
2023-02-01T06:42:33.907Z,64.13
2023-02-01T06:43:01.683Z,63.65
2023-02-01T06:44:01.680Z,65.10
2023-02-01T06:45:01.679Z,61.55
2023-02-01T06:46:01.663Z,61.39
2023-02-01T06:47:02.281Z,60.59
2023-02-01T06:48:01.643Z,60.42
2023-02-01T06:49:01.648Z,63.00
2023-02-01T06:50:01.630Z,63.65
2023-02-01T06:51:01.625Z,62.20
2023-02-01T06:52:01.610Z,60.26
2023-02-01T06:53:01.617Z,64.13
2023-02-01T06:54:02.329Z,65.58
2023-02-01T06:55:01.628Z,64.13
2023-02-01T06:56:01.614Z,63.16
2023-02-01T06:57:01.592Z,64.78
2023-02-01T06:58:01.580Z,62.84
2023-02-01T06:59:01.570Z,63.65
2023-02-01T07:00:01.602Z,62.52
2023-02-01T07:01:01.594Z,66.06
2023-02-01T07:02:01.622Z,67.84
2023-02-01T07:03:01.530Z,66.71
2023-02-01T07:04:01.562Z,65.26
2023-02-01T07:05:01.516Z,65.26
2023-02-01T07:06:01.526Z,62.68
2023-02-01T07:07:01.497Z,64.45
2023-02-01T07:08:01.493Z,63.81
2023-02-01T07:09:01.494Z,66.87
2023-02-01T07:10:01.473Z,63.81
2023-02-01T07:11:01.479Z,63.33
2023-02-01T07:12:01.468Z,63.00
2023-02-01T07:13:01.450Z,61.55
2023-02-01T07:14:01.467Z,60.26
2023-02-01T07:15:01.440Z,61.07
2023-02-01T07:16:01.462Z,63.16
2023-02-01T07:17:01.413Z,61.39
2023-02-01T07:18:01.421Z,62.36
2023-02-01T07:19:01.410Z,60.59
2023-02-01T07:20:01.394Z,62.52
2023-02-01T07:21:01.414Z,62.52
2023-02-01T07:22:01.390Z,60.75
2023-02-01T07:23:02.254Z,61.39
2023-02-01T07:24:03.371Z,60.91
2023-02-01T07:25:01.394Z,67.19
2023-02-01T07:26:01.377Z,62.52
2023-02-01T07:27:01.753Z,61.55
2023-02-01T07:28:01.343Z,63.00
2023-02-01T07:29:01.340Z,64.29
2023-02-01T07:30:02.326Z,63.00
2023-02-01T07:31:02.954Z,63.33
2023-02-01T07:32:01.336Z,59.94
2023-02-01T07:33:01.301Z,59.46
2023-02-01T07:34:01.307Z,61.07
2023-02-01T07:35:01.301Z,59.46
2023-02-01T07:36:01.270Z,62.36
2023-02-01T07:37:01.271Z,59.30
2023-02-01T07:38:01.271Z,62.20
2023-02-01T07:39:01.273Z,60.26
2023-02-01T07:40:01.280Z,60.59
2023-02-01T07:41:01.246Z,58.33
2023-02-01T07:42:01.226Z,61.23
2023-02-01T07:43:01.221Z,59.94
2023-02-01T07:44:01.230Z,59.78
2023-02-01T07:45:11.218Z,60.59
2023-02-01T07:46:03.880Z,59.30
2023-02-01T07:47:01.217Z,59.94
2023-02-01T07:48:01.202Z,59.62
2023-02-01T07:49:01.192Z,59.46
2023-02-01T07:50:01.204Z,61.07
2023-02-01T07:51:01.193Z,62.04
2023-02-01T07:52:01.165Z,62.36
2023-02-01T07:53:01.171Z,62.04
2023-02-01T07:54:01.172Z,58.65
2023-02-01T07:55:01.148Z,63.16
2023-02-01T07:56:01.128Z,62.52
2023-02-01T07:57:01.153Z,61.39
2023-02-01T07:58:01.187Z,65.26
2023-02-01T07:59:01.115Z,66.55
2023-02-01T08:00:01.087Z,65.26
2023-02-01T08:01:02.140Z,66.06
2023-02-01T08:02:01.805Z,62.52
2023-02-01T08:03:01.083Z,66.39
2023-02-01T08:04:02.925Z,62.68
2023-02-01T08:05:01.058Z,62.52
2023-02-01T08:06:01.059Z,63.16
2023-02-01T08:07:01.054Z,60.42
2023-02-01T08:08:01.048Z,60.10
2023-02-01T08:09:01.038Z,60.91
2023-02-01T08:10:01.034Z,59.78
2023-02-01T08:11:01.007Z,60.42
2023-02-01T08:12:01.000Z,59.14
2023-02-01T08:13:01.043Z,61.71
2023-02-01T08:14:00.993Z,61.39
2023-02-01T08:15:00.976Z,59.62
2023-02-01T08:16:00.977Z,60.42
2023-02-01T08:17:00.971Z,63.33
2023-02-01T08:18:01.037Z,63.00
2023-02-01T08:19:00.963Z,63.65
2023-02-01T08:20:00.978Z,61.71
2023-02-01T08:21:00.939Z,62.36
2023-02-01T08:22:00.925Z,60.59
2023-02-01T08:23:00.924Z,59.94
2023-02-01T08:24:03.839Z,59.46
2023-02-01T08:25:00.904Z,61.39
2023-02-01T08:26:00.891Z,64.45
2023-02-01T08:27:02.767Z,61.55
2023-02-01T08:28:01.795Z,63.81
2023-02-01T08:29:00.877Z,62.84
2023-02-01T08:30:00.871Z,63.00
2023-02-01T08:31:02.925Z,60.59
2023-02-01T08:32:00.876Z,60.10
2023-02-01T08:33:00.840Z,61.71
2023-02-01T08:34:02.773Z,60.10
2023-02-01T08:35:00.838Z,63.65
2023-02-01T08:36:01.760Z,60.10
2023-02-01T08:37:00.815Z,62.52
2023-02-01T08:38:00.811Z,60.75
2023-02-01T08:39:00.805Z,64.45
2023-02-01T08:40:00.796Z,61.23
2023-02-01T08:41:00.781Z,61.23
2023-02-01T08:42:00.775Z,64.94
2023-02-01T08:43:00.874Z,60.26
2023-02-01T08:44:00.762Z,61.39
2023-02-01T08:45:00.748Z,61.71
2023-02-01T08:46:01.442Z,61.23
2023-02-01T08:47:00.763Z,60.75
2023-02-01T08:48:00.732Z,60.59
2023-02-01T08:49:00.713Z,65.42
2023-02-01T08:50:01.727Z,59.94
2023-02-01T08:51:00.710Z,64.13
2023-02-01T08:52:04.028Z,59.94
2023-02-01T08:53:02.678Z,61.39
2023-02-01T08:54:00.678Z,64.45
2023-02-01T08:55:00.679Z,63.65
2023-02-01T08:56:00.663Z,63.00
2023-02-01T08:57:00.667Z,59.62
2023-02-01T08:58:00.650Z,58.81
2023-02-01T08:59:00.641Z,59.94
2023-02-01T09:00:05.722Z,61.87
2023-02-01T09:01:00.688Z,61.71
2023-02-01T09:02:02.272Z,60.91
2023-02-01T09:03:01.605Z,64.61
2023-02-01T09:04:02.498Z,62.36
2023-02-01T09:05:02.291Z,63.00
2023-02-01T09:06:00.599Z,60.42
2023-02-01T09:07:00.622Z,58.65
2023-02-01T09:08:00.592Z,59.14
2023-02-01T09:09:00.574Z,62.36
2023-02-01T09:10:00.555Z,56.72
2023-02-01T09:11:02.995Z,58.97
2023-02-01T09:12:01.548Z,61.23
2023-02-01T09:13:00.523Z,59.62
2023-02-01T09:14:01.357Z,60.10
2023-02-01T09:15:00.766Z,60.59
2023-02-01T09:16:00.652Z,60.10
2023-02-01T09:17:00.534Z,64.13
2023-02-01T09:18:00.494Z,59.78
2023-02-01T09:19:24.489Z,60.42
2023-02-01T09:20:02.484Z,63.81
2023-02-01T09:21:00.469Z,62.52
2023-02-01T09:22:00.468Z,65.10
2023-02-01T09:23:00.443Z,61.87
2023-02-01T09:24:00.460Z,61.71
2023-02-01T09:25:00.460Z,61.39
2023-02-01T09:26:00.424Z,59.62
2023-02-01T21:26:04.889Z,54.46
2023-02-01T21:27:04.889Z,56.07
2023-02-01T21:28:04.888Z,56.40
2023-02-01T21:29:04.873Z,59.62
2023-02-01T21:30:06.363Z,58.01
2023-02-01T21:31:04.868Z,59.46
2023-02-01T21:32:04.968Z,59.78
2023-02-01T21:33:04.841Z,56.40
2023-02-01T21:34:04.897Z,54.14
2023-02-01T21:35:04.811Z,53.01
2023-02-01T21:36:04.804Z,56.24
2023-02-01T21:37:04.806Z,54.14
2023-02-01T21:38:04.803Z,50.11
2023-02-01T21:39:04.822Z,49.15
2023-02-01T21:40:04.778Z,48.18
2023-02-01T21:41:04.769Z,55.27
2023-02-01T21:42:04.765Z,56.88
2023-02-01T21:43:04.770Z,53.98
2023-02-01T21:44:04.756Z,49.95
2023-02-01T21:45:04.755Z,48.02
2023-02-01T21:46:04.795Z,52.85
2023-02-01T21:47:06.387Z,53.50
2023-02-01T21:48:04.716Z,49.95
2023-02-01T21:49:06.866Z,51.56
2023-02-01T21:50:04.691Z,50.92
2023-02-01T21:51:08.464Z,50.76
2023-02-01T21:52:04.683Z,50.60
2023-02-01T21:53:05.428Z,57.36
2023-02-01T21:54:12.570Z,55.27
2023-02-01T21:55:04.655Z,56.88
2023-02-01T21:56:04.649Z,51.40
2023-02-01T21:57:04.655Z,48.98
2023-02-01T21:58:04.637Z,51.24
2023-02-01T21:59:04.636Z,51.88
2023-02-01T22:00:04.622Z,56.24
2023-02-01T22:01:04.633Z,49.79
2023-02-01T22:02:04.737Z,52.85
2023-02-01T22:03:04.608Z,54.62
2023-02-01T22:04:04.574Z,53.17
2023-02-01T22:05:04.585Z,50.27
2023-02-01T22:06:04.561Z,49.79
2023-02-01T22:07:04.544Z,48.50
2023-02-01T22:08:05.555Z,53.33
2023-02-01T22:09:04.547Z,53.66
2023-02-01T22:10:04.589Z,53.66
2023-02-01T22:11:04.517Z,48.82
2023-02-01T22:12:04.514Z,49.31
2023-02-01T22:13:04.519Z,55.11
2023-02-01T22:14:04.491Z,57.20
2023-02-01T22:15:04.500Z,56.24
2023-02-01T22:16:04.496Z,52.69
2023-02-01T22:17:05.406Z,51.88
2023-02-01T22:18:04.464Z,53.50
2023-02-01T22:19:04.550Z,51.56
2023-02-01T22:20:04.461Z,52.53
2023-02-01T22:21:04.459Z,54.46
2023-02-01T22:22:04.437Z,48.02
2023-02-01T22:23:04.434Z,55.43
2023-02-01T22:24:04.537Z,56.88
2023-02-01T22:25:04.411Z,58.01
2023-02-01T22:26:04.434Z,48.66
2023-02-01T22:27:14.449Z,48.66
2023-02-01T22:28:32.840Z,49.47
2023-02-01T22:29:07.409Z,47.53
2023-02-01T22:30:04.367Z,50.11
2023-02-01T22:31:06.138Z,50.92
2023-02-01T22:32:05.893Z,59.30
2023-02-01T22:33:04.405Z,50.60
2023-02-01T22:34:04.364Z,47.86
2023-02-01T22:35:06.935Z,47.70
2023-02-01T22:36:04.371Z,51.40
2023-02-01T22:37:04.307Z,48.66
2023-02-01T22:38:04.307Z,52.05
2023-02-01T22:39:04.302Z,51.72
2023-02-01T22:40:04.326Z,50.60
2023-02-01T22:41:04.348Z,51.88
2023-02-01T22:42:04.272Z,49.95
2023-02-01T22:43:04.259Z,52.21
2023-02-01T22:44:04.967Z,48.66
2023-02-01T22:45:04.246Z,48.02
2023-02-01T22:46:05.899Z,48.98
2023-02-01T22:47:04.251Z,55.75
2023-02-01T22:48:04.986Z,49.79
2023-02-01T22:49:04.502Z,50.27
2023-02-01T22:50:06.215Z,47.37
2023-02-01T22:51:05.080Z,54.79
2023-02-01T22:52:04.169Z,55.43
2023-02-01T22:53:04.156Z,54.14
2023-02-01T22:54:04.172Z,53.01
2023-02-01T22:55:04.144Z,49.31
2023-02-01T22:56:06.392Z,52.21
2023-02-01T22:57:04.128Z,56.88
2023-02-01T22:58:06.005Z,51.40
2023-02-01T22:59:04.099Z,47.70
2023-02-01T23:00:04.121Z,48.66
2023-02-01T23:01:04.113Z,51.40
2023-02-01T23:02:04.077Z,51.88
2023-02-01T23:03:04.106Z,43.83
2023-02-01T23:04:04.068Z,43.34
2023-02-01T23:05:04.065Z,45.76
2023-02-01T23:06:04.055Z,43.02
2023-02-01T23:07:04.045Z,44.79
2023-02-01T23:08:04.015Z,40.93
2023-02-01T23:09:05.034Z,46.41
2023-02-01T23:10:04.005Z,52.37
2023-02-01T23:11:04.002Z,45.44
2023-02-01T23:12:03.994Z,50.76
2023-02-01T23:13:04.011Z,55.11
2023-02-01T23:14:03.969Z,47.37
2023-02-01T23:15:03.967Z,50.76
2023-02-01T23:16:03.993Z,48.18
2023-02-01T23:17:03.977Z,43.99
2023-02-01T23:18:03.960Z,45.28
2023-02-01T23:19:03.977Z,49.31
2023-02-01T23:20:03.932Z,50.92
2023-02-01T23:21:03.924Z,49.31
2023-02-01T23:22:04.043Z,44.47
2023-02-01T23:23:03.917Z,46.25
2023-02-01T23:24:05.862Z,44.63
2023-02-01T23:25:03.889Z,54.62
2023-02-01T23:26:05.010Z,43.51
2023-02-01T23:27:05.987Z,43.02
2023-02-01T23:28:03.864Z,59.62
2023-02-01T23:29:03.855Z,49.47
2023-02-01T23:30:03.848Z,43.34
2023-02-01T23:31:03.919Z,41.73
2023-02-01T23:32:05.450Z,42.54
2023-02-01T23:33:03.834Z,40.12
2023-02-01T23:34:03.816Z,39.96
2023-02-01T23:35:03.845Z,45.12
2023-02-01T23:36:03.827Z,43.02
2023-02-01T23:37:03.796Z,45.60
2023-02-01T23:38:03.782Z,50.43
2023-02-01T23:39:03.778Z,43.99
2023-02-01T23:40:03.763Z,46.08
2023-02-01T23:41:03.748Z,44.79
2023-02-01T23:42:04.442Z,47.70
2023-02-01T23:43:04.386Z,39.32
2023-02-01T23:44:03.736Z,38.35
2023-02-01T23:45:03.738Z,38.35
2023-02-01T23:46:03.740Z,41.57
2023-02-01T23:47:03.724Z,43.02
2023-02-01T23:48:03.703Z,41.25
2023-02-01T23:49:03.698Z,39.64
2023-02-01T23:50:03.691Z,41.25
2023-02-01T23:51:03.689Z,39.80
2023-02-01T23:52:03.663Z,49.31
2023-02-01T23:53:05.375Z,43.67
2023-02-01T23:54:03.651Z,46.41
2023-02-01T23:55:06.446Z,42.70
2023-02-01T23:56:03.641Z,41.89
2023-02-01T23:57:03.646Z,39.80
2023-02-01T23:58:03.621Z,40.61
2023-02-01T23:59:03.609Z,39.96
